createdAt,value
2018-03-25T00:00:17.629Z,5.52
2018-03-25T00:01:17.610Z,5.62
2018-03-25T00:02:17.581Z,5.49
2018-03-25T00:03:17.536Z,5.57
2018-03-25T00:04:17.509Z,5.48
2018-03-25T00:05:17.477Z,5.45
2018-03-25T00:06:17.451Z,5.54
2018-03-25T00:07:17.424Z,5.46
2018-03-25T00:08:17.395Z,5.49
2018-03-25T00:09:17.369Z,5.41
2018-03-25T00:10:17.332Z,5.48
2018-03-25T00:11:17.312Z,5.44
2018-03-25T00:12:17.281Z,5.49
2018-03-25T00:13:17.260Z,5.51
2018-03-25T00:14:17.223Z,5.45
2018-03-25T00:15:17.200Z,5.48
2018-03-25T00:16:17.159Z,5.51
2018-03-25T00:17:17.134Z,5.51
2018-03-25T00:18:17.109Z,5.48
2018-03-25T00:19:17.074Z,5.49
2018-03-25T00:20:17.038Z,5.45
2018-03-25T00:21:17.038Z,5.39
2018-03-25T00:22:16.990Z,5.39
2018-03-25T00:23:16.960Z,5.44
2018-03-25T00:24:16.924Z,5.46
2018-03-25T00:25:16.906Z,5.46
2018-03-25T00:26:16.869Z,5.42
2018-03-25T00:27:16.851Z,5.42
2018-03-25T00:28:16.811Z,5.42
2018-03-25T00:29:16.805Z,5.37
2018-03-25T00:30:16.758Z,5.44
2018-03-25T00:31:16.722Z,5.39
2018-03-25T00:32:16.702Z,5.39
2018-03-25T00:33:16.669Z,5.30
2018-03-25T00:34:16.637Z,5.30
2018-03-25T00:35:16.608Z,5.27
2018-03-25T00:36:16.594Z,5.28
2018-03-25T00:37:16.583Z,5.26
2018-03-25T00:38:16.522Z,5.44
2018-03-25T00:39:16.491Z,5.28
2018-03-25T00:40:16.463Z,5.23
2018-03-25T00:41:16.464Z,5.27
2018-03-25T00:42:16.406Z,5.26
2018-03-25T00:43:16.382Z,5.26
2018-03-25T00:44:16.349Z,5.30
2018-03-25T00:45:16.320Z,5.27
2018-03-25T00:46:16.291Z,5.27
2018-03-25T00:47:16.271Z,5.28
2018-03-25T00:48:16.271Z,5.34
2018-03-25T00:49:16.215Z,5.27
2018-03-25T00:50:16.194Z,5.30
2018-03-25T00:51:16.148Z,5.33
2018-03-25T00:52:16.118Z,5.41
2018-03-25T00:53:16.090Z,5.41
2018-03-25T00:54:16.048Z,5.44
2018-03-25T00:55:16.029Z,5.39
2018-03-25T00:56:16.007Z,5.46
2018-03-25T00:57:15.963Z,5.39
2018-03-25T00:58:15.940Z,5.48
2018-03-25T00:59:15.945Z,5.44
2018-03-25T01:00:15.894Z,5.48
2018-03-25T01:01:15.881Z,5.48
2018-03-25T01:02:15.838Z,5.42
2018-03-25T01:03:15.788Z,5.48
2018-03-25T01:04:15.797Z,5.44
2018-03-25T01:05:15.739Z,5.39
2018-03-25T01:06:15.707Z,5.44
2018-03-25T01:07:15.690Z,5.45
2018-03-25T01:08:15.650Z,5.42
2018-03-25T01:09:15.640Z,5.45
2018-03-25T01:10:15.592Z,5.48
2018-03-25T01:11:15.584Z,5.51
2018-03-25T01:12:15.541Z,5.45
2018-03-25T01:13:15.496Z,5.49
2018-03-25T01:14:15.468Z,5.41
2018-03-25T01:15:15.459Z,5.39
2018-03-25T01:16:15.411Z,5.49
2018-03-25T01:17:15.391Z,5.45
2018-03-25T01:18:15.370Z,5.45
2018-03-25T01:19:15.320Z,5.52
2018-03-25T01:20:15.295Z,5.49
2018-03-25T01:21:15.275Z,5.42
2018-03-25T01:22:15.242Z,5.46
2018-03-25T01:23:15.206Z,5.52
2018-03-25T01:24:15.188Z,5.57
2018-03-25T01:25:15.153Z,5.48
2018-03-25T01:26:15.121Z,5.52
2018-03-25T01:27:15.096Z,5.52
2018-03-25T01:28:15.080Z,5.52
2018-03-25T01:29:15.039Z,5.46
2018-03-25T01:30:14.998Z,5.51
2018-03-25T01:31:14.982Z,5.45
2018-03-25T01:32:14.949Z,5.41
2018-03-25T01:33:14.932Z,5.39
2018-03-25T01:34:14.891Z,5.46
2018-03-25T01:35:14.861Z,5.36
2018-03-25T01:36:14.873Z,5.31
2018-03-25T01:37:14.804Z,5.33
2018-03-25T01:38:14.835Z,5.31
2018-03-25T01:39:14.753Z,5.37
2018-03-25T01:40:14.722Z,5.28
2018-03-25T01:41:14.702Z,5.26
2018-03-25T01:42:14.656Z,5.26
2018-03-25T01:43:14.630Z,5.26
2018-03-25T01:44:14.626Z,5.31
2018-03-25T01:45:14.652Z,5.34
2018-03-25T01:46:14.545Z,5.28
2018-03-25T01:47:14.542Z,5.33
2018-03-25T01:48:14.492Z,5.33
2018-03-25T01:49:14.470Z,5.36
2018-03-25T01:50:14.455Z,5.34
2018-03-25T01:51:14.400Z,5.34
2018-03-25T01:52:14.378Z,5.31
2018-03-25T01:53:14.376Z,5.34
2018-03-25T01:54:14.371Z,5.30
2018-03-25T01:55:14.301Z,5.27
2018-03-25T01:56:14.273Z,5.30
2018-03-25T01:57:14.221Z,5.24
2018-03-25T01:58:14.203Z,5.18
2018-03-25T01:59:14.162Z,5.12
2018-03-25T02:00:14.137Z,5.10
2018-03-25T02:01:14.110Z,5.21
2018-03-25T02:02:14.082Z,5.16
2018-03-25T02:03:14.046Z,5.20
2018-03-25T02:04:14.022Z,5.20
2018-03-25T02:05:13.986Z,5.15
2018-03-25T02:06:13.974Z,5.13
2018-03-25T02:07:13.930Z,5.15
2018-03-25T02:08:13.903Z,5.16
2018-03-25T02:09:13.876Z,5.18
2018-03-25T02:10:13.843Z,5.13
2018-03-25T02:11:13.817Z,5.13
2018-03-25T02:12:13.778Z,5.02
2018-03-25T02:13:13.785Z,4.98
2018-03-25T02:14:13.726Z,4.98
2018-03-25T02:15:13.694Z,5.00
2018-03-25T02:16:13.686Z,4.88
2018-03-25T02:17:13.642Z,4.90
2018-03-25T02:18:13.654Z,4.92
2018-03-25T02:19:13.635Z,4.91
2018-03-25T02:20:13.552Z,4.85
2018-03-25T02:21:13.531Z,4.92
2018-03-25T02:22:13.523Z,4.91
2018-03-25T02:23:13.466Z,4.87
2018-03-25T02:24:13.463Z,4.75
2018-03-25T02:25:13.396Z,4.75
2018-03-25T02:26:13.377Z,4.60
2018-03-25T02:27:13.377Z,4.66
2018-03-25T02:28:13.318Z,4.65
2018-03-25T02:29:13.288Z,4.60
2018-03-25T02:30:13.256Z,4.54
2018-03-25T02:31:13.228Z,4.58
2018-03-25T02:32:13.201Z,4.58
2018-03-25T02:33:13.171Z,4.68
2018-03-25T02:34:13.141Z,4.61
2018-03-25T02:35:13.118Z,4.71
2018-03-25T02:36:13.092Z,4.72
2018-03-25T02:37:13.047Z,4.79
2018-03-25T02:38:13.021Z,4.66
2018-03-25T02:39:13.010Z,4.64
2018-03-25T02:40:12.962Z,4.64
2018-03-25T02:41:12.946Z,4.75
2018-03-25T02:42:12.903Z,4.74
2018-03-25T02:43:12.892Z,4.78
2018-03-25T02:44:12.847Z,4.87
2018-03-25T02:45:12.832Z,4.85
2018-03-25T02:46:12.780Z,4.90
2018-03-25T02:47:13.358Z,4.91
2018-03-25T02:48:12.761Z,4.90
2018-03-25T02:49:12.701Z,4.88
2018-03-25T02:50:12.680Z,4.90
2018-03-25T02:51:12.672Z,4.91
2018-03-25T02:52:12.623Z,4.84
2018-03-25T02:53:12.605Z,4.78
2018-03-25T02:54:12.557Z,4.85
2018-03-25T02:55:12.520Z,4.84
2018-03-25T02:56:12.519Z,4.83
2018-03-25T02:57:12.465Z,4.85
2018-03-25T02:58:12.441Z,4.84
2018-03-25T02:59:12.454Z,4.88
2018-03-25T03:00:12.400Z,4.88
2018-03-25T03:01:12.362Z,4.83
2018-03-25T03:02:12.318Z,4.84
2018-03-25T03:03:12.301Z,4.85
2018-03-25T03:04:12.368Z,4.94
2018-03-25T03:05:12.232Z,4.94
2018-03-25T03:06:12.221Z,4.97
2018-03-25T03:07:12.178Z,4.97
2018-03-25T03:08:12.157Z,4.97
2018-03-25T03:09:12.121Z,5.02
2018-03-25T03:10:12.097Z,4.98
2018-03-25T03:11:12.048Z,4.95
2018-03-25T03:12:12.021Z,5.08
2018-03-25T03:13:12.006Z,5.02
2018-03-25T03:14:11.977Z,5.02
2018-03-25T03:15:11.935Z,4.95
2018-03-25T03:16:11.929Z,5.00
2018-03-25T03:17:11.899Z,4.95
2018-03-25T03:18:11.874Z,4.92
2018-03-25T03:19:11.838Z,4.97
2018-03-25T03:20:11.790Z,5.02
2018-03-25T03:21:11.770Z,5.02
2018-03-25T03:22:11.751Z,4.97
2018-03-25T03:23:11.717Z,5.03
2018-03-25T03:24:11.683Z,5.00
2018-03-25T03:25:11.688Z,5.03
2018-03-25T03:26:11.684Z,5.08
2018-03-25T03:27:11.595Z,4.95
2018-03-25T03:28:11.550Z,4.94
2018-03-25T03:29:11.550Z,5.05
2018-03-25T03:30:11.504Z,4.94
2018-03-25T03:31:11.479Z,5.09
2018-03-25T03:32:11.436Z,4.94
2018-03-25T03:33:11.395Z,5.03
2018-03-25T03:34:11.373Z,5.05
2018-03-25T03:35:11.358Z,4.95
2018-03-25T03:36:11.316Z,5.00
2018-03-25T03:37:11.289Z,4.97
2018-03-25T03:38:11.261Z,4.95
2018-03-25T03:39:11.254Z,4.88
2018-03-25T03:40:11.226Z,4.91
2018-03-25T03:41:11.189Z,4.88
2018-03-25T03:42:11.145Z,4.98
2018-03-25T03:43:11.103Z,4.94
2018-03-25T03:44:11.088Z,4.97
2018-03-25T03:45:11.049Z,4.95
2018-03-25T03:46:11.023Z,5.00
2018-03-25T03:47:11.009Z,4.97
2018-03-25T03:48:10.961Z,4.97
2018-03-25T03:49:10.934Z,4.94
2018-03-25T03:50:10.926Z,5.10
2018-03-25T03:51:10.877Z,4.94
2018-03-25T03:52:10.853Z,4.92
2018-03-25T03:53:10.823Z,5.00
2018-03-25T03:54:10.848Z,5.05
2018-03-25T03:55:10.750Z,5.03
2018-03-25T03:56:10.723Z,5.00
2018-03-25T03:57:10.700Z,5.08
2018-03-25T03:58:10.693Z,5.05
2018-03-25T03:59:10.680Z,4.97
2018-03-25T04:00:10.625Z,4.85
2018-03-25T04:01:10.678Z,4.90
2018-03-25T04:02:11.362Z,4.72
2018-03-25T04:03:10.516Z,4.72
2018-03-25T04:04:10.501Z,4.69
2018-03-25T04:05:10.476Z,4.71
2018-03-25T04:06:10.431Z,4.74
2018-03-25T04:07:10.447Z,4.76
2018-03-25T04:08:10.371Z,4.71
2018-03-25T04:09:10.353Z,4.85
2018-03-25T04:10:10.321Z,4.88
2018-03-25T04:11:10.296Z,4.88
2018-03-25T04:12:10.271Z,4.94
2018-03-25T04:13:10.249Z,5.02
2018-03-25T04:14:10.206Z,4.97
2018-03-25T04:15:10.173Z,5.08
2018-03-25T04:16:10.141Z,5.10
2018-03-25T04:17:10.111Z,5.15
2018-03-25T04:18:10.087Z,5.20
2018-03-25T04:19:10.088Z,5.18
2018-03-25T04:20:10.024Z,5.16
2018-03-25T04:21:10.020Z,5.06
2018-03-25T04:22:09.967Z,5.00
2018-03-25T04:23:09.941Z,4.90
2018-03-25T04:24:09.932Z,5.02
2018-03-25T04:25:09.889Z,4.78
2018-03-25T04:26:09.856Z,4.88
2018-03-25T04:27:09.838Z,4.84
2018-03-25T04:28:09.799Z,4.74
2018-03-25T04:29:09.775Z,4.74
2018-03-25T04:30:09.747Z,4.69
2018-03-25T04:31:09.704Z,4.76
2018-03-25T04:32:09.685Z,4.65
2018-03-25T04:33:09.658Z,4.64
2018-03-25T04:34:09.622Z,4.61
2018-03-25T04:35:09.600Z,4.68
2018-03-25T04:36:09.576Z,4.71
2018-03-25T04:37:09.525Z,4.72
2018-03-25T04:38:09.508Z,4.71
2018-03-25T04:39:09.501Z,4.87
2018-03-25T04:40:09.441Z,4.75
2018-03-25T04:41:09.415Z,4.84
2018-03-25T04:42:09.378Z,4.68
2018-03-25T04:43:09.358Z,4.61
2018-03-25T04:44:09.344Z,4.57
2018-03-25T04:45:09.310Z,4.58
2018-03-25T04:46:09.269Z,4.61
2018-03-25T04:47:09.263Z,4.54
2018-03-25T04:48:09.206Z,4.60
2018-03-25T04:49:09.181Z,4.64
2018-03-25T04:50:09.186Z,4.69
2018-03-25T04:51:09.122Z,4.76
2018-03-25T04:52:09.093Z,4.72
2018-03-25T04:53:09.096Z,4.76
2018-03-25T04:54:09.031Z,4.72
2018-03-25T04:55:09.025Z,4.72
2018-03-25T04:56:09.058Z,4.71
2018-03-25T04:57:08.940Z,4.68
2018-03-25T04:58:16.878Z,4.72
2018-03-25T05:00:01.785Z,4.85
2018-03-25T05:01:01.770Z,4.84
2018-03-25T05:02:01.705Z,4.90
2018-03-25T05:03:01.678Z,4.85
2018-03-25T05:04:01.652Z,4.91
2018-03-25T05:05:01.618Z,4.85
2018-03-25T05:06:01.585Z,4.85
2018-03-25T05:07:01.562Z,4.87
2018-03-25T05:08:01.528Z,4.87
2018-03-25T05:09:01.532Z,4.79
2018-03-25T05:10:01.471Z,4.72
2018-03-25T05:11:01.441Z,4.71
2018-03-25T05:12:01.419Z,4.65
2018-03-25T05:13:01.386Z,4.57
2018-03-25T05:14:01.359Z,4.57
2018-03-25T05:15:01.328Z,4.48
2018-03-25T05:16:01.293Z,4.48
2018-03-25T05:17:01.268Z,4.51
2018-03-25T05:18:01.313Z,4.58
2018-03-25T05:19:01.210Z,4.57
2018-03-25T05:20:01.205Z,4.56
2018-03-25T05:21:01.147Z,4.65
2018-03-25T05:22:01.127Z,4.69
2018-03-25T05:23:01.095Z,4.65
2018-03-25T05:24:01.060Z,4.56
2018-03-25T05:25:01.039Z,4.56
2018-03-25T05:26:01.007Z,4.58
2018-03-25T05:27:00.991Z,4.61
2018-03-25T05:28:00.961Z,4.66
2018-03-25T05:29:00.913Z,4.74
2018-03-25T05:30:00.890Z,4.79
2018-03-25T05:31:00.861Z,4.68
2018-03-25T05:32:00.854Z,4.78
2018-03-25T05:33:00.799Z,4.84
2018-03-25T05:34:00.771Z,4.90
2018-03-25T05:35:00.735Z,4.87
2018-03-25T05:36:00.715Z,4.84
2018-03-25T05:37:00.680Z,4.85
2018-03-25T05:38:00.654Z,4.92
2018-03-25T05:39:00.628Z,4.88
2018-03-25T05:40:00.591Z,4.94
2018-03-25T05:41:00.566Z,4.88
2018-03-25T05:42:00.532Z,4.92
2018-03-25T05:43:00.502Z,4.94
2018-03-25T05:44:00.480Z,4.92
2018-03-25T05:45:00.453Z,4.90
2018-03-25T05:46:00.420Z,4.94
2018-03-25T05:47:00.391Z,4.92
2018-03-25T05:48:00.358Z,4.94
2018-03-25T05:49:00.323Z,5.00
2018-03-25T05:50:00.303Z,5.00
2018-03-25T05:51:00.270Z,4.94
2018-03-25T05:52:00.265Z,4.92
2018-03-25T05:53:00.219Z,4.98
2018-03-25T05:54:00.228Z,4.94
2018-03-25T05:55:00.150Z,4.95
2018-03-25T05:56:00.138Z,4.98
2018-03-25T05:57:00.104Z,5.03
2018-03-25T05:58:00.068Z,4.98
2018-03-25T05:59:00.042Z,5.03
2018-03-25T06:00:00.012Z,5.02
2018-03-25T06:00:59.984Z,5.00
2018-03-25T06:01:59.956Z,5.10
2018-03-25T06:02:59.929Z,5.08
2018-03-25T06:03:59.891Z,5.15
2018-03-25T06:04:59.861Z,5.15
2018-03-25T06:05:59.838Z,5.16
2018-03-25T06:06:59.800Z,5.15
2018-03-25T06:07:59.780Z,5.20
2018-03-25T06:08:59.747Z,5.20
2018-03-25T06:09:59.716Z,5.12
2018-03-25T06:10:59.702Z,5.27
2018-03-25T06:12:02.153Z,5.27
2018-03-25T06:13:01.138Z,5.33
2018-03-25T06:14:01.171Z,5.33
2018-03-25T06:15:01.108Z,5.28
2018-03-25T06:15:59.620Z,5.24
2018-03-25T06:16:59.510Z,5.30
2018-03-25T06:17:59.519Z,5.41
2018-03-25T06:18:59.466Z,5.45
2018-03-25T06:19:59.428Z,5.45
2018-03-25T06:20:59.414Z,5.41
2018-03-25T06:21:59.371Z,5.45
2018-03-25T06:22:59.339Z,5.48
2018-03-25T06:23:59.314Z,5.48
2018-03-25T06:24:59.279Z,5.41
2018-03-25T06:25:59.256Z,5.55
2018-03-25T06:26:59.221Z,5.52
2018-03-25T06:27:59.201Z,5.49
2018-03-25T06:28:59.181Z,5.55
2018-03-25T06:29:59.141Z,5.48
2018-03-25T06:30:59.114Z,5.59
2018-03-25T06:31:59.087Z,5.55
2018-03-25T06:32:59.216Z,5.55
2018-03-25T06:33:59.022Z,5.62
2018-03-25T06:34:58.998Z,5.62
2018-03-25T06:35:58.969Z,5.64
2018-03-25T06:36:58.934Z,5.48
2018-03-25T06:37:58.910Z,5.45
2018-03-25T06:38:58.874Z,5.52
2018-03-25T06:39:58.854Z,5.64
2018-03-25T06:40:58.819Z,5.60
2018-03-25T06:41:58.812Z,5.59
2018-03-25T06:42:58.767Z,5.52
2018-03-25T06:43:58.753Z,5.60
2018-03-25T06:44:58.710Z,5.54
2018-03-25T06:45:58.676Z,5.57
2018-03-25T06:46:58.652Z,5.49
2018-03-25T06:47:58.617Z,5.52
2018-03-25T06:48:58.591Z,5.44
2018-03-25T06:49:58.564Z,5.52
2018-03-25T06:50:58.549Z,5.54
2018-03-25T06:51:58.504Z,5.59
2018-03-25T06:52:58.487Z,5.60
2018-03-25T06:53:58.447Z,5.64
2018-03-25T06:54:58.421Z,5.63
2018-03-25T06:55:58.396Z,5.72
2018-03-25T06:56:58.359Z,5.81
2018-03-25T06:57:58.341Z,5.72
2018-03-25T06:58:58.312Z,5.73
2018-03-25T06:59:58.278Z,5.87
2018-03-25T07:00:58.253Z,5.87
2018-03-25T07:01:58.250Z,5.96
2018-03-25T07:02:58.231Z,5.89
2018-03-25T07:03:58.165Z,5.88
2018-03-25T07:04:58.141Z,5.96
2018-03-25T07:05:58.110Z,5.99
2018-03-25T07:06:58.073Z,5.99
2018-03-25T07:07:58.055Z,6.03
2018-03-25T07:08:58.017Z,6.02
2018-03-25T07:09:57.997Z,6.00
2018-03-25T07:10:57.970Z,6.03
2018-03-25T07:11:57.940Z,6.05
2018-03-25T07:12:57.913Z,6.15
2018-03-25T07:13:57.877Z,6.21
2018-03-25T07:14:57.850Z,6.07
2018-03-25T07:15:57.831Z,6.14
2018-03-25T07:16:57.801Z,6.17
2018-03-25T07:17:57.770Z,6.28
2018-03-25T07:18:57.745Z,6.26
2018-03-25T07:19:57.713Z,6.26
2018-03-25T07:20:57.682Z,6.29
2018-03-25T07:21:57.649Z,6.20
2018-03-25T07:22:57.626Z,6.36
2018-03-25T07:23:57.598Z,6.39
2018-03-25T07:24:57.569Z,6.51
2018-03-25T07:25:57.536Z,6.47
2018-03-25T07:26:57.514Z,6.51
2018-03-25T07:27:57.485Z,6.54
2018-03-25T07:28:57.452Z,6.51
2018-03-25T07:29:57.431Z,6.43
2018-03-25T07:30:57.402Z,6.44
2018-03-25T07:31:57.374Z,6.47
2018-03-25T07:32:57.345Z,6.44
2018-03-25T07:33:57.317Z,6.58
2018-03-25T07:34:57.297Z,6.55
2018-03-25T07:35:57.263Z,6.72
2018-03-25T07:36:57.226Z,6.88
2018-03-25T07:37:57.204Z,7.09
2018-03-25T07:38:57.171Z,6.98
2018-03-25T07:39:57.151Z,7.23
2018-03-25T07:40:57.178Z,7.13
2018-03-25T07:41:57.094Z,7.21
2018-03-25T07:42:57.070Z,7.29
2018-03-25T07:43:57.032Z,7.39
2018-03-25T07:44:57.013Z,7.13
2018-03-25T07:45:56.988Z,7.33
2018-03-25T07:46:56.959Z,7.29
2018-03-25T07:47:56.928Z,7.36
2018-03-25T07:48:56.907Z,7.09
2018-03-25T07:49:56.906Z,7.23
2018-03-25T07:50:56.845Z,7.13
2018-03-25T07:51:56.827Z,7.30
2018-03-25T07:52:56.784Z,7.41
2018-03-25T07:53:56.762Z,7.44
2018-03-25T07:54:56.751Z,7.55
2018-03-25T07:55:56.707Z,7.61
2018-03-25T07:56:56.678Z,7.55
2018-03-25T07:57:56.667Z,7.49
2018-03-25T07:58:56.624Z,7.61
2018-03-25T07:59:56.596Z,7.59
2018-03-25T08:00:56.580Z,7.61
2018-03-25T08:01:56.569Z,7.63
2018-03-25T08:02:56.512Z,7.63
2018-03-25T08:03:56.503Z,7.52
2018-03-25T08:04:56.506Z,7.55
2018-03-25T08:05:56.437Z,7.54
2018-03-25T08:06:56.399Z,7.55
2018-03-25T08:07:56.375Z,7.61
2018-03-25T08:08:56.348Z,7.64
2018-03-25T08:09:56.329Z,7.59
2018-03-25T08:10:56.298Z,7.54
2018-03-25T08:11:56.281Z,7.40
2018-03-25T08:12:56.246Z,7.47
2018-03-25T08:13:56.241Z,7.41
2018-03-25T08:14:56.196Z,7.49
2018-03-25T08:15:56.184Z,7.55
2018-03-25T08:16:56.142Z,7.41
2018-03-25T08:17:56.102Z,7.48
2018-03-25T08:18:56.072Z,7.59
2018-03-25T08:19:56.055Z,7.64
2018-03-25T08:20:56.024Z,7.70
2018-03-25T08:21:56.011Z,7.70
2018-03-25T08:22:55.978Z,7.80
2018-03-25T08:23:55.966Z,7.88
2018-03-25T08:24:55.912Z,7.93
2018-03-25T08:25:55.891Z,7.96
2018-03-25T08:26:55.864Z,7.99
2018-03-25T08:27:55.867Z,7.95
2018-03-25T08:28:55.803Z,7.88
2018-03-25T08:29:55.778Z,8.07
2018-03-25T08:30:55.758Z,7.86
2018-03-25T08:31:55.747Z,7.95
2018-03-25T08:32:55.705Z,8.07
2018-03-25T08:33:55.698Z,8.17
2018-03-25T08:34:55.648Z,8.28
2018-03-25T08:35:55.619Z,8.40
2018-03-25T08:36:55.596Z,8.40
2018-03-25T08:37:55.570Z,8.39
2018-03-25T08:38:55.551Z,8.40
2018-03-25T08:39:55.528Z,8.50
2018-03-25T08:40:55.486Z,8.43
2018-03-25T08:41:55.462Z,8.39
2018-03-25T08:42:55.449Z,8.50
2018-03-25T08:43:55.405Z,8.72
2018-03-25T08:44:55.372Z,8.74
2018-03-25T08:45:55.373Z,8.87
2018-03-25T08:46:55.325Z,8.87
2018-03-25T08:47:55.302Z,8.83
2018-03-25T08:48:55.281Z,8.89
2018-03-25T08:49:55.240Z,8.77
2018-03-25T08:50:55.218Z,8.71
2018-03-25T08:51:55.190Z,8.60
2018-03-25T08:52:55.185Z,8.62
2018-03-25T08:53:55.140Z,8.65
2018-03-25T08:54:55.115Z,8.72
2018-03-25T08:55:55.084Z,8.72
2018-03-25T08:56:55.059Z,8.67
2018-03-25T08:57:55.032Z,8.79
2018-03-25T08:58:55.011Z,8.90
2018-03-25T08:59:54.974Z,8.87
2018-03-25T09:00:54.956Z,8.86
2018-03-25T09:01:54.938Z,8.94
2018-03-25T09:02:54.903Z,9.09
2018-03-25T09:03:54.916Z,9.14
2018-03-25T09:04:54.850Z,9.23
2018-03-25T09:05:54.819Z,9.23
2018-03-25T09:06:54.797Z,9.29
2018-03-25T09:07:54.764Z,9.24
2018-03-25T09:08:54.738Z,9.26
2018-03-25T09:09:54.711Z,9.48
2018-03-25T09:10:54.685Z,9.56
2018-03-25T09:11:54.671Z,9.67
2018-03-25T09:12:54.638Z,9.80
2018-03-25T09:13:54.614Z,9.72
2018-03-25T09:14:54.598Z,9.55
2018-03-25T09:15:54.569Z,9.62
2018-03-25T09:16:54.536Z,9.56
2018-03-25T09:17:54.512Z,9.75
2018-03-25T09:18:54.492Z,9.67
2018-03-25T09:19:54.457Z,9.48
2018-03-25T09:20:54.434Z,9.35
2018-03-25T09:21:54.404Z,9.30
2018-03-25T09:22:54.391Z,9.39
2018-03-25T09:23:54.354Z,9.45
2018-03-25T09:24:54.322Z,9.44
2018-03-25T09:25:54.310Z,9.26
2018-03-25T09:26:54.273Z,9.37
2018-03-25T09:27:54.271Z,9.29
2018-03-25T09:28:54.228Z,9.26
2018-03-25T09:29:54.200Z,9.38
2018-03-25T09:30:54.218Z,9.38
2018-03-25T09:31:54.147Z,9.47
2018-03-25T09:32:54.125Z,9.23
2018-03-25T09:33:54.091Z,9.30
2018-03-25T09:34:54.074Z,9.38
2018-03-25T09:35:54.050Z,9.32
2018-03-25T09:36:54.016Z,9.38
2018-03-25T09:37:53.996Z,9.57
2018-03-25T09:38:53.971Z,9.80
2018-03-25T09:39:53.937Z,9.80
2018-03-25T09:40:53.915Z,9.74
2018-03-25T09:41:53.892Z,9.70
2018-03-25T09:42:53.868Z,9.77
2018-03-25T09:43:53.847Z,9.82
2018-03-25T09:44:53.821Z,9.90
2018-03-25T09:45:53.790Z,10.03
2018-03-25T09:46:53.778Z,10.00
2018-03-25T09:47:53.739Z,10.08
2018-03-25T09:48:53.711Z,10.11
2018-03-25T09:49:53.690Z,10.00
2018-03-25T09:50:53.663Z,10.05
2018-03-25T09:51:53.637Z,10.15
2018-03-25T09:52:53.615Z,10.03
2018-03-25T09:53:53.579Z,10.02
2018-03-25T09:54:53.564Z,10.02
2018-03-25T09:55:53.534Z,10.02
2018-03-25T09:56:53.508Z,9.81
2018-03-25T09:57:53.484Z,9.78
2018-03-25T09:58:53.453Z,9.70
2018-03-25T09:59:53.432Z,9.80
2018-03-25T10:00:53.402Z,9.82
2018-03-25T10:01:53.392Z,9.93
2018-03-25T10:02:53.356Z,9.89
2018-03-25T10:03:53.332Z,9.80
2018-03-25T10:04:53.331Z,9.72
2018-03-25T10:05:53.282Z,9.55
2018-03-25T10:06:53.248Z,9.72
2018-03-25T10:07:53.233Z,9.81
2018-03-25T10:08:53.197Z,9.92
2018-03-25T10:09:53.180Z,9.93
2018-03-25T10:10:53.154Z,10.11
2018-03-25T10:11:53.126Z,10.13
2018-03-25T10:12:53.101Z,10.38
2018-03-25T10:13:53.069Z,10.65
2018-03-25T10:14:53.046Z,10.91
2018-03-25T10:15:53.028Z,10.90
2018-03-25T10:16:53.008Z,10.75
2018-03-25T10:17:52.973Z,10.84
2018-03-25T10:18:52.966Z,10.83
2018-03-25T10:19:52.928Z,10.85
2018-03-25T10:20:52.909Z,10.88
2018-03-25T10:21:52.870Z,10.98
2018-03-25T10:22:52.851Z,11.00
2018-03-25T10:23:52.835Z,11.13
2018-03-25T10:24:52.800Z,11.20
2018-03-25T10:25:52.769Z,11.21
2018-03-25T10:26:52.746Z,11.28
2018-03-25T10:27:52.722Z,11.27
2018-03-25T10:28:52.697Z,11.12
2018-03-25T10:29:52.680Z,11.00
2018-03-25T10:30:52.654Z,10.97
2018-03-25T10:31:52.630Z,10.98
2018-03-25T10:32:52.603Z,11.08
2018-03-25T10:33:52.569Z,11.06
2018-03-25T10:34:52.555Z,11.06
2018-03-25T10:35:52.561Z,10.91
2018-03-25T10:36:52.499Z,10.90
2018-03-25T10:37:52.477Z,11.03
2018-03-25T10:38:52.446Z,11.09
2018-03-25T10:39:52.430Z,11.12
2018-03-25T10:40:52.404Z,11.12
2018-03-25T10:41:52.407Z,11.05
2018-03-25T10:42:52.359Z,11.06
2018-03-25T10:43:52.325Z,10.98
2018-03-25T10:44:52.329Z,10.95
2018-03-25T10:45:52.279Z,10.84
2018-03-25T10:46:52.257Z,10.95
2018-03-25T10:47:52.246Z,10.98
2018-03-25T10:48:52.210Z,11.02
2018-03-25T10:49:52.179Z,11.20
2018-03-25T10:50:52.175Z,11.20
2018-03-25T10:51:52.144Z,11.33
2018-03-25T10:52:52.111Z,11.24
2018-03-25T10:53:52.112Z,11.28
2018-03-25T10:54:52.067Z,11.31
2018-03-25T10:55:52.035Z,11.26
2018-03-25T10:56:52.015Z,11.39
2018-03-25T10:57:51.984Z,11.26
2018-03-25T10:58:51.957Z,11.20
2018-03-25T10:59:51.945Z,11.16
2018-03-25T11:00:51.915Z,11.31
2018-03-25T11:01:51.911Z,11.34
2018-03-25T11:02:51.926Z,11.35
2018-03-25T11:03:51.841Z,11.38
2018-03-25T11:04:51.871Z,11.35
2018-03-25T11:05:51.792Z,11.53
2018-03-25T11:06:51.772Z,11.67
2018-03-25T11:07:51.736Z,11.66
2018-03-25T11:08:51.719Z,11.66
2018-03-25T11:09:52.396Z,11.70
2018-03-25T11:10:51.675Z,11.71
2018-03-25T11:11:51.645Z,11.68
2018-03-25T11:12:51.622Z,11.76
2018-03-25T11:13:51.598Z,11.71
2018-03-25T11:14:51.568Z,11.75
2018-03-25T11:15:51.547Z,11.66
2018-03-25T11:16:51.519Z,11.60
2018-03-25T11:17:51.547Z,11.67
2018-03-25T11:18:51.500Z,11.60
2018-03-25T11:19:51.469Z,11.60
2018-03-25T11:20:51.538Z,11.59
2018-03-25T11:21:51.400Z,11.53
2018-03-25T11:22:51.410Z,11.59
2018-03-25T11:23:51.382Z,11.43
2018-03-25T11:24:51.348Z,11.18
2018-03-25T11:25:51.301Z,11.18
2018-03-25T11:26:51.315Z,11.15
2018-03-25T11:27:51.282Z,10.98
2018-03-25T11:28:51.228Z,11.03
2018-03-25T11:29:51.257Z,10.91
2018-03-25T11:30:58.903Z,11.06
2018-03-25T11:32:44.187Z,11.03
2018-03-25T11:33:44.070Z,11.09
2018-03-25T11:35:36.944Z,11.20
2018-03-25T11:36:36.919Z,11.08
2018-03-25T11:38:29.953Z,10.98
2018-03-25T11:39:29.775Z,11.02
2018-03-25T11:40:29.804Z,10.97
2018-03-25T11:41:29.766Z,10.94
2018-03-25T11:42:29.754Z,11.08
2018-03-25T11:43:29.700Z,11.00
2018-03-25T11:44:29.658Z,11.03
2018-03-25T11:45:29.690Z,11.00
2018-03-25T11:46:29.600Z,11.05
2018-03-25T11:47:29.580Z,11.05
2018-03-25T11:48:29.544Z,11.21
2018-03-25T11:49:29.552Z,11.26
2018-03-25T11:50:29.496Z,11.41
2018-03-25T11:51:29.530Z,11.38
2018-03-25T11:52:29.454Z,11.46
2018-03-25T11:53:29.494Z,11.59
2018-03-25T11:54:29.411Z,11.53
2018-03-25T11:55:29.421Z,11.60
2018-03-25T11:56:29.352Z,11.70
2018-03-25T11:57:29.330Z,11.73
2018-03-25T11:58:29.309Z,11.71
2018-03-25T11:59:29.278Z,11.68
2018-03-25T12:00:29.249Z,11.76
2018-03-25T12:01:29.231Z,11.70
2018-03-25T12:02:29.201Z,11.79
2018-03-25T12:03:29.178Z,11.81
2018-03-25T12:04:29.156Z,11.95
2018-03-25T12:05:29.128Z,11.98
2018-03-25T12:06:29.096Z,12.00
2018-03-25T12:07:29.096Z,12.10
2018-03-25T12:08:29.061Z,12.07
2018-03-25T12:09:29.035Z,12.00
2018-03-25T12:10:29.002Z,12.13
2018-03-25T12:11:29.063Z,12.20
2018-03-25T12:12:28.960Z,12.15
2018-03-25T12:13:28.960Z,12.00
2018-03-25T12:14:28.907Z,12.01
2018-03-25T12:15:28.877Z,12.00
2018-03-25T12:16:28.861Z,12.00
2018-03-25T12:17:28.828Z,12.05
2018-03-25T12:18:28.805Z,11.95
2018-03-25T12:19:28.817Z,12.01
2018-03-25T12:20:28.775Z,12.07
2018-03-25T12:21:29.192Z,12.34
2018-03-25T12:22:28.712Z,12.45
2018-03-25T12:23:28.686Z,12.65
2018-03-25T12:24:28.660Z,12.63
2018-03-25T12:25:28.638Z,12.77
2018-03-25T12:26:28.614Z,12.71
2018-03-25T12:27:28.616Z,12.71
2018-03-25T12:28:28.558Z,12.78
2018-03-25T12:29:28.539Z,12.76
2018-03-25T12:30:28.508Z,12.91
2018-03-25T12:31:28.487Z,13.02
2018-03-25T12:32:28.473Z,13.11
2018-03-25T12:33:28.440Z,13.25
2018-03-25T12:34:28.415Z,13.31
2018-03-25T12:35:28.398Z,13.25
2018-03-25T12:36:28.367Z,13.11
2018-03-25T12:37:28.346Z,13.03
2018-03-25T12:38:28.327Z,12.92
2018-03-25T12:39:28.295Z,12.63
2018-03-25T12:40:28.267Z,12.41
2018-03-25T12:41:28.418Z,12.26
2018-03-25T12:42:28.225Z,12.38
2018-03-25T12:43:28.202Z,12.47
2018-03-25T12:44:28.179Z,12.37
2018-03-25T12:45:28.164Z,12.55
2018-03-25T12:46:28.130Z,12.38
2018-03-25T12:47:28.100Z,12.38
2018-03-25T12:48:28.083Z,12.48
2018-03-25T12:49:28.060Z,12.38
2018-03-25T12:50:28.048Z,12.34
2018-03-25T12:51:28.008Z,12.33
2018-03-25T12:52:28.011Z,12.31
2018-03-25T12:53:27.961Z,12.33
2018-03-25T12:54:27.941Z,12.38
2018-03-25T12:55:27.986Z,12.31
2018-03-25T12:56:27.895Z,12.41
2018-03-25T12:57:27.863Z,12.40
2018-03-25T12:58:27.938Z,12.62
2018-03-25T12:59:27.811Z,12.58
2018-03-25T13:00:27.799Z,12.63
2018-03-25T13:01:27.765Z,12.69
2018-03-25T13:02:27.793Z,12.62
2018-03-25T13:03:27.717Z,12.59
2018-03-25T13:04:27.697Z,12.45
2018-03-25T13:05:27.671Z,12.62
2018-03-25T13:06:27.646Z,12.62
2018-03-25T13:07:27.626Z,12.55
2018-03-25T13:08:27.605Z,12.55
2018-03-25T13:09:27.584Z,12.48
2018-03-25T13:10:27.558Z,12.51
2018-03-25T13:11:27.534Z,12.47
2018-03-25T13:12:27.515Z,12.38
2018-03-25T13:13:27.483Z,12.40
2018-03-25T13:14:27.459Z,12.33
2018-03-25T13:15:27.503Z,12.10